Terminal Aerodrome Forecast
Issued by NWS

Home | Current Version | Previous Version | Text Only | Print | Product List | Glossary On
Versions: 1 2 3 4 5 6 7 8 9 10 11 12 13 14 15 16
000
FTUS45 KCYS 221736
TAFRWL
TAF
KRWL 221736Z 2218/2318 VRB05KT P6SM -SHRA BKN080
     FM222000 21015G25KT P6SM VCSH BKN100
     FM230200 VRB05KT P6SM VCSH BKN100
     FM230600 05010KT P6SM OVC012=

USA.gov is the U.S. government's official web portal to all federal, state and local government web resources and services.